createdAt,value
2022-10-15T00:04:39.215Z,100632.19
2022-10-15T00:09:44.269Z,100640.06
2022-10-15T00:14:48.009Z,100638.47
2022-10-15T00:19:51.758Z,100640.19
2022-10-15T00:24:56.809Z,100640.34
2022-10-15T00:30:03.154Z,100636.97
2022-10-15T00:35:07.412Z,100638.62
2022-10-15T00:40:15.039Z,100636.13
2022-10-15T00:45:18.874Z,100642.03
2022-10-15T00:50:25.752Z,100643.72
2022-10-15T00:55:33.951Z,100635.25
2022-10-15T01:00:38.164Z,100640.63
2022-10-15T01:05:42.625Z,100641.41
2022-10-15T01:10:55.132Z,100637.16
2022-10-15T01:16:03.314Z,100633.78
2022-10-15T01:21:16.426Z,100632.84
2022-10-15T01:26:54.752Z,100623.31
2022-10-15T01:32:04.885Z,100611.28
2022-10-15T01:37:12.710Z,100614.75
2022-10-15T01:42:24.586Z,100600.97
2022-10-15T01:47:35.337Z,100613.81
2022-10-15T01:52:41.605Z,100605.31
2022-10-15T01:57:47.236Z,100610.63
2022-10-15T02:02:53.247Z,100605.38
2022-10-15T02:08:03.465Z,100600.28
2022-10-15T02:13:19.865Z,100591.69
2022-10-15T02:18:32.442Z,100593.34
2022-10-15T02:23:42.336Z,100586.44
2022-10-15T02:28:52.136Z,100573.53
2022-10-15T02:34:02.208Z,100569.94
2022-10-15T02:39:08.097Z,100564.66
2022-10-15T02:44:11.880Z,100548.22
2022-10-15T02:49:16.937Z,100543.75
2022-10-15T02:54:21.040Z,100545.47
2022-10-15T02:59:24.818Z,100531.50
2022-10-15T03:04:30.128Z,100535.75
2022-10-15T03:09:35.128Z,100529.69
2022-10-15T03:14:39.883Z,100534.66
2022-10-15T03:19:45.442Z,100537.09
2022-10-15T03:24:49.203Z,100530.09
2022-10-15T03:29:55.624Z,100523.81
2022-10-15T03:35:01.179Z,100522.81
2022-10-15T03:40:10.545Z,100517.53
2022-10-15T03:45:18.975Z,100516.53
2022-10-15T03:50:26.284Z,100523.34
2022-10-15T03:55:29.987Z,100524.00
2022-10-15T04:00:33.790Z,100531.13
2022-10-15T04:05:39.538Z,100540.66
2022-10-15T04:10:43.728Z,100545.91
2022-10-15T04:15:47.455Z,100560.75
2022-10-15T04:20:52.707Z,100564.31
2022-10-15T04:25:59.929Z,100568.84
2022-10-15T04:31:04.096Z,100566.41
2022-10-15T04:36:14.076Z,100552.66
2022-10-15T04:41:19.362Z,100548.50
2022-10-15T04:46:23.843Z,100546.06
2022-10-15T04:51:29.227Z,100543.72
2022-10-15T04:56:35.105Z,100540.19
2022-10-15T05:01:39.081Z,100535.09
2022-10-15T05:06:44.853Z,100531.81
2022-10-15T05:11:52.955Z,100537.84
2022-10-15T05:16:56.741Z,100532.81
2022-10-15T05:22:02.009Z,100528.34
2022-10-15T05:27:07.679Z,100531.00
2022-10-15T05:32:12.692Z,100523.12
2022-10-15T05:37:18.326Z,100521.06
2022-10-15T05:42:22.670Z,100517.66
2022-10-15T05:47:27.135Z,100519.44
2022-10-15T05:52:34.311Z,100521.56
2022-10-15T05:57:38.529Z,100512.97
2022-10-15T06:02:42.504Z,100515.63
2022-10-15T06:07:47.624Z,100501.78
2022-10-15T06:12:51.794Z,100501.00
2022-10-15T06:17:55.485Z,100503.81
2022-10-15T06:23:00.841Z,100512.41
2022-10-15T06:28:05.379Z,100510.81
2022-10-15T06:33:12.843Z,100499.56
2022-10-15T06:38:18.225Z,100509.88
2022-10-15T06:43:21.896Z,100508.37
2022-10-15T06:48:25.718Z,100511.03
2022-10-15T06:53:32.256Z,100502.44
2022-10-15T06:58:36.112Z,100512.75
2022-10-15T07:03:40.000Z,100513.81
2022-10-15T07:08:45.927Z,100499.91
2022-10-15T07:13:49.860Z,100504.44
2022-10-15T07:18:53.566Z,100485.75
2022-10-15T07:23:59.384Z,100479.84
2022-10-15T07:29:04.638Z,100471.16
2022-10-15T07:34:08.448Z,100468.75
2022-10-15T07:39:13.744Z,100473.19
2022-10-15T07:44:17.500Z,100469.81
2022-10-15T07:49:21.251Z,100458.66
2022-10-15T07:54:26.549Z,100445.09
2022-10-15T07:59:30.273Z,100447.94
2022-10-15T08:04:35.109Z,100441.06
2022-10-15T08:09:40.399Z,100448.13
2022-10-15T08:14:44.231Z,100438.78
2022-10-15T08:19:47.943Z,100438.84
2022-10-15T08:24:53.157Z,100430.59
2022-10-15T08:29:56.954Z,100427.25
2022-10-15T08:35:00.621Z,100421.47
2022-10-15T08:40:08.044Z,100415.56
2022-10-15T08:45:15.309Z,100410.53
2022-10-15T08:50:28.875Z,100402.78
2022-10-15T08:55:40.022Z,100396.09
2022-10-15T09:00:48.373Z,100387.31
2022-10-15T09:05:54.142Z,100382.31
2022-10-15T09:11:04.147Z,100379.41
2022-10-15T09:16:15.573Z,100378.50
2022-10-15T09:21:20.125Z,100379.41
2022-10-15T09:26:30.669Z,100385.53
2022-10-15T09:31:45.515Z,100385.53
2022-10-15T09:36:55.930Z,100375.28
2022-10-15T09:42:12.133Z,100368.09
2022-10-15T09:47:18.609Z,100366.06
2022-10-15T09:52:36.973Z,100374.00
2022-10-15T09:57:48.349Z,100359.37
2022-10-15T10:03:07.097Z,100368.91
2022-10-15T10:08:18.972Z,100362.03
2022-10-15T10:13:27.260Z,100387.38
2022-10-15T10:18:32.191Z,100369.97
2022-10-15T10:23:37.528Z,100380.44
2022-10-15T10:28:48.118Z,100375.28
2022-10-15T10:33:52.354Z,100387.56
2022-10-15T10:38:59.388Z,100384.28
2022-10-15T10:44:04.423Z,100386.28
2022-10-15T10:49:10.016Z,100386.34
2022-10-15T10:54:15.089Z,100386.44
2022-10-15T10:59:24.811Z,100380.59
2022-10-15T11:04:32.573Z,100384.06
2022-10-15T11:09:47.904Z,100378.12
2022-10-15T11:14:59.640Z,100375.69
2022-10-15T11:20:38.994Z,100377.59
2022-10-15T11:25:47.788Z,100369.88
2022-10-15T11:31:00.851Z,100372.63
2022-10-15T11:36:18.652Z,100371.09
2022-10-15T11:41:36.652Z,100375.53
2022-10-15T11:46:48.390Z,100381.72
2022-10-15T11:52:07.111Z,100377.38
2022-10-15T11:57:15.080Z,100387.84
2022-10-15T12:02:24.077Z,100391.34
2022-10-15T12:07:32.048Z,100401.03
2022-10-15T12:12:42.033Z,100395.19
2022-10-15T12:17:55.568Z,100383.50
2022-10-15T12:23:00.970Z,100357.75
2022-10-15T12:28:06.950Z,100326.94
2022-10-15T12:33:27.085Z,100326.88
2022-10-15T12:38:32.964Z,100319.13
2022-10-15T12:43:40.733Z,100318.47
2022-10-15T12:48:47.323Z,100305.22
2022-10-15T12:53:51.916Z,100316.66
2022-10-15T12:58:56.715Z,100330.72
2022-10-15T13:04:02.331Z,100334.22
2022-10-15T13:09:25.708Z,100337.56
2022-10-15T13:14:33.517Z,100353.00
2022-10-15T13:19:41.919Z,100363.31
2022-10-15T13:24:46.457Z,100373.47
2022-10-15T13:29:56.730Z,100374.09
2022-10-15T13:35:03.882Z,100377.72
2022-10-15T13:40:09.501Z,100381.19
2022-10-15T13:45:18.531Z,100381.41
2022-10-15T13:50:26.315Z,100385.38
2022-10-15T13:55:33.804Z,100385.75
2022-10-15T14:00:38.209Z,100411.00
2022-10-15T14:05:43.889Z,100424.13
2022-10-15T14:10:48.194Z,100435.66
2022-10-15T14:15:59.365Z,100428.69
2022-10-15T14:21:11.105Z,100432.12
2022-10-15T14:26:16.985Z,100442.38
2022-10-15T14:31:39.282Z,100453.75
2022-10-15T14:36:45.021Z,100457.03
2022-10-15T14:41:56.823Z,100453.75
2022-10-15T14:47:03.454Z,100460.94
2022-10-15T14:52:14.941Z,100459.66
2022-10-15T14:57:24.939Z,100466.44
2022-10-15T15:02:30.167Z,100473.09
2022-10-15T15:07:35.284Z,100477.00
2022-10-15T15:12:40.427Z,100466.66
2022-10-15T15:17:45.008Z,100463.53
2022-10-15T15:22:52.263Z,100478.31
2022-10-15T15:27:56.067Z,100471.56
2022-10-15T15:33:00.591Z,100475.69
2022-10-15T15:38:08.464Z,100476.75
2022-10-15T15:43:15.217Z,100476.78
2022-10-15T15:48:19.033Z,100475.00
2022-10-15T15:53:24.062Z,100476.66
2022-10-15T15:58:27.849Z,100477.47
2022-10-15T16:03:31.745Z,100484.34
2022-10-15T16:08:38.642Z,100492.91
2022-10-15T16:13:43.110Z,100499.78
2022-10-15T16:18:46.844Z,100491.78
2022-10-15T16:23:52.185Z,100502.09
2022-10-15T16:28:55.908Z,100515.69
2022-10-15T16:33:59.742Z,100515.63
2022-10-15T16:39:05.311Z,100520.66
2022-10-15T16:44:09.243Z,100523.91
2022-10-15T16:49:13.010Z,100534.12
2022-10-15T16:54:18.087Z,100536.44
2022-10-15T16:59:22.235Z,100550.03
2022-10-15T17:04:26.133Z,100545.44
2022-10-15T17:09:31.326Z,100557.44
2022-10-15T17:14:35.060Z,100582.44
2022-10-15T17:19:38.773Z,100598.69
2022-10-15T17:24:43.855Z,100583.69
2022-10-15T17:29:47.600Z,100601.00
2022-10-15T17:34:51.314Z,100608.69
2022-10-15T17:39:58.286Z,100611.19
2022-10-15T17:45:02.196Z,100631.00
2022-10-15T17:50:07.072Z,100633.53
2022-10-15T17:55:12.314Z,100634.31
2022-10-15T18:00:16.171Z,100653.13
2022-10-15T18:05:19.888Z,100661.00
2022-10-15T18:10:24.993Z,100653.84
2022-10-15T18:15:28.838Z,100663.19
2022-10-15T18:20:32.655Z,100665.16
2022-10-15T18:25:38.386Z,100673.47
2022-10-15T18:30:43.347Z,100670.13
2022-10-15T18:35:47.804Z,100670.94
2022-10-15T18:40:53.123Z,100669.97
2022-10-15T18:46:02.701Z,100669.03
2022-10-15T18:51:10.020Z,100673.84
2022-10-15T18:56:15.326Z,100678.91
2022-10-15T19:01:26.923Z,100694.56
2022-10-15T19:06:34.267Z,100694.41
2022-10-15T19:11:40.762Z,100692.66
2022-10-15T19:16:45.234Z,100698.72
2022-10-15T19:21:50.200Z,100696.12
2022-10-15T19:26:55.260Z,100714.34
2022-10-15T19:31:58.951Z,100711.75
2022-10-15T19:37:03.085Z,100714.28
2022-10-15T19:42:08.576Z,100717.38
2022-10-15T19:47:14.247Z,100701.44
2022-10-15T19:52:18.028Z,100709.44
2022-10-15T19:57:24.904Z,100719.66
2022-10-15T20:02:28.872Z,100715.47
2022-10-15T20:07:32.590Z,100717.12
2022-10-15T20:12:37.964Z,100721.28
2022-10-15T20:17:41.749Z,100733.28
2022-10-15T20:22:45.539Z,100737.56
2022-10-15T20:27:50.576Z,100738.44
2022-10-15T20:32:54.447Z,100740.75
2022-10-15T20:37:58.251Z,100739.78
2022-10-15T20:43:03.417Z,100740.44
2022-10-15T20:48:09.501Z,100740.34
2022-10-15T20:53:13.538Z,100753.44
2022-10-15T20:58:18.703Z,100758.94
2022-10-15T21:03:22.683Z,100760.69
2022-10-15T21:08:27.358Z,100765.09
2022-10-15T21:13:32.519Z,100773.41
2022-10-15T21:18:37.017Z,100777.66
2022-10-15T21:23:42.937Z,100777.34
2022-10-15T21:28:48.020Z,100790.31
2022-10-15T21:33:52.672Z,100791.09
2022-10-15T21:39:00.878Z,100796.00
2022-10-15T21:44:07.124Z,100807.50
2022-10-15T21:49:11.030Z,100807.50
2022-10-15T21:54:14.712Z,100809.09
2022-10-15T21:59:19.748Z,100821.25
2022-10-15T22:04:23.514Z,100822.78
2022-10-15T22:09:27.244Z,100827.09
2022-10-15T22:14:32.281Z,100826.94
2022-10-15T22:19:35.963Z,100828.47
2022-10-15T22:24:39.880Z,100828.53
2022-10-15T22:29:45.190Z,100826.50
2022-10-15T22:34:48.971Z,100831.75
2022-10-15T22:39:52.650Z,100831.41
2022-10-15T22:44:57.679Z,100830.72
2022-10-15T22:55:07.395Z,100829.47
2022-10-15T23:00:14.330Z,100826.78
2022-10-15T23:05:18.318Z,100828.38
2022-10-15T23:10:22.023Z,100829.94
2022-10-15T23:15:27.136Z,100827.94
2022-10-15T23:20:33.682Z,100833.00
2022-10-15T23:25:40.367Z,100831.19
2022-10-15T23:30:45.358Z,100840.63
2022-10-15T23:35:58.003Z,100845.81
2022-10-15T23:41:02.571Z,100845.69
2022-10-15T23:46:08.045Z,100842.94
2022-10-15T23:51:15.405Z,100852.53
2022-10-15T23:56:19.411Z,100849.09
